sensor_id;sensor_type;location;lat;lon;timestamp;P1;durP1;ratioP1;P2;durP2;ratioP2
21539;SDS011;10931;52.164;5.518;2023-04-08T00:00:45;0.52;;;0.47;;
21539;SDS011;10931;52.164;5.518;2023-04-08T00:03:10;0.90;;;0.70;;
21539;SDS011;10931;52.164;5.518;2023-04-08T00:05:38;1.08;;;0.60;;
21539;SDS011;10931;52.164;5.518;2023-04-08T00:08:04;0.75;;;0.60;;
21539;SDS011;10931;52.164;5.518;2023-04-08T00:10:30;1.30;;;0.80;;
21539;SDS011;10931;52.164;5.518;2023-04-08T00:12:56;1.10;;;0.60;;
21539;SDS011;10931;52.164;5.518;2023-04-08T00:15:22;1.00;;;0.88;;
21539;SDS011;10931;52.164;5.518;2023-04-08T00:17:47;0.75;;;0.68;;
21539;SDS011;10931;52.164;5.518;2023-04-08T00:20:13;0.70;;;0.60;;
21539;SDS011;10931;52.164;5.518;2023-04-08T00:22:39;0.88;;;0.60;;
21539;SDS011;10931;52.164;5.518;2023-04-08T00:25:15;0.95;;;0.60;;
21539;SDS011;10931;52.164;5.518;2023-04-08T00:27:42;1.33;;;0.60;;
21539;SDS011;10931;52.164;5.518;2023-04-08T00:30:13;0.90;;;0.70;;
21539;SDS011;10931;52.164;5.518;2023-04-08T00:32:40;2.55;;;0.70;;
21539;SDS011;10931;52.164;5.518;2023-04-08T00:35:06;0.75;;;0.57;;
21539;SDS011;10931;52.164;5.518;2023-04-08T00:37:33;1.35;;;0.75;;
21539;SDS011;10931;52.164;5.518;2023-04-08T00:39:59;1.17;;;0.68;;
21539;SDS011;10931;52.164;5.518;2023-04-08T00:42:25;0.88;;;0.70;;
21539;SDS011;10931;52.164;5.518;2023-04-08T00:44:50;1.55;;;0.90;;
21539;SDS011;10931;52.164;5.518;2023-04-08T00:47:16;1.15;;;0.60;;
21539;SDS011;10931;52.164;5.518;2023-04-08T00:49:49;0.70;;;0.65;;
21539;SDS011;10931;52.164;5.518;2023-04-08T00:52:15;0.80;;;0.70;;
21539;SDS011;10931;52.164;5.518;2023-04-08T00:54:44;0.75;;;0.60;;
21539;SDS011;10931;52.164;5.518;2023-04-08T00:57:13;0.82;;;0.60;;
21539;SDS011;10931;52.164;5.518;2023-04-08T00:59:42;0.82;;;0.65;;
21539;SDS011;10931;52.164;5.518;2023-04-08T01:05:05;1.35;;;0.68;;
21539;SDS011;10931;52.164;5.518;2023-04-08T01:07:48;0.75;;;0.68;;
21539;SDS011;10931;52.164;5.518;2023-04-08T01:10:15;0.60;;;0.60;;
21539;SDS011;10931;52.164;5.518;2023-04-08T01:12:47;0.90;;;0.70;;
21539;SDS011;10931;52.164;5.518;2023-04-08T01:15:25;0.55;;;0.55;;
21539;SDS011;10931;52.164;5.518;2023-04-08T01:17:55;0.47;;;0.47;;
21539;SDS011;10931;52.164;5.518;2023-04-08T01:20:23;2.22;;;0.70;;
21539;SDS011;10931;52.164;5.518;2023-04-08T01:25:35;0.98;;;0.88;;
21539;SDS011;10931;52.164;5.518;2023-04-08T01:28:20;0.95;;;0.70;;
21539;SDS011;10931;52.164;5.518;2023-04-08T01:30:48;0.40;;;0.40;;
21539;SDS011;10931;52.164;5.518;2023-04-08T01:33:15;1.08;;;0.63;;
21539;SDS011;10931;52.164;5.518;2023-04-08T01:35:43;0.68;;;0.57;;
21539;SDS011;10931;52.164;5.518;2023-04-08T01:38:17;0.60;;;0.50;;
21539;SDS011;10931;52.164;5.518;2023-04-08T01:40:45;0.85;;;0.65;;
21539;SDS011;10931;52.164;5.518;2023-04-08T01:43:16;0.77;;;0.60;;
21539;SDS011;10931;52.164;5.518;2023-04-08T01:45:46;0.60;;;0.60;;
21539;SDS011;10931;52.164;5.518;2023-04-08T01:48:13;1.20;;;0.60;;
21539;SDS011;10931;52.164;5.518;2023-04-08T01:50:44;0.70;;;0.60;;
21539;SDS011;10931;52.164;5.518;2023-04-08T01:53:10;1.17;;;0.70;;
21539;SDS011;10931;52.164;5.518;2023-04-08T01:55:37;0.50;;;0.50;;
21539;SDS011;10931;52.164;5.518;2023-04-08T01:58:06;0.50;;;0.50;;
21539;SDS011;10931;52.164;5.518;2023-04-08T02:00:35;0.47;;;0.47;;
21539;SDS011;10931;52.164;5.518;2023-04-08T02:05:33;0.52;;;0.38;;
21539;SDS011;10931;52.164;5.518;2023-04-08T02:08:07;0.60;;;0.57;;
21539;SDS011;10931;52.164;5.518;2023-04-08T02:10:33;0.52;;;0.50;;
21539;SDS011;10931;52.164;5.518;2023-04-08T02:12:59;0.88;;;0.57;;
21539;SDS011;10931;52.164;5.518;2023-04-08T02:15:26;0.50;;;0.50;;
21539;SDS011;10931;52.164;5.518;2023-04-08T02:17:59;0.63;;;0.50;;
21539;SDS011;10931;52.164;5.518;2023-04-08T02:20:42;0.50;;;0.50;;
21539;SDS011;10931;52.164;5.518;2023-04-08T02:23:15;0.57;;;0.47;;
21539;SDS011;10931;52.164;5.518;2023-04-08T02:25:45;1.17;;;0.80;;
21539;SDS011;10931;52.164;5.518;2023-04-08T02:28:30;0.52;;;0.50;;
21539;SDS011;10931;52.164;5.518;2023-04-08T02:31:02;0.50;;;0.50;;
21539;SDS011;10931;52.164;5.518;2023-04-08T02:33:30;0.52;;;0.50;;
21539;SDS011;10931;52.164;5.518;2023-04-08T02:35:58;1.30;;;0.77;;
21539;SDS011;10931;52.164;5.518;2023-04-08T02:38:25;0.93;;;0.60;;
21539;SDS011;10931;52.164;5.518;2023-04-08T02:40:54;0.47;;;0.47;;
21539;SDS011;10931;52.164;5.518;2023-04-08T02:43:20;0.65;;;0.55;;
21539;SDS011;10931;52.164;5.518;2023-04-08T02:45:50;0.52;;;0.52;;
21539;SDS011;10931;52.164;5.518;2023-04-08T02:48:16;0.75;;;0.60;;
21539;SDS011;10931;52.164;5.518;2023-04-08T02:50:42;0.77;;;0.52;;
21539;SDS011;10931;52.164;5.518;2023-04-08T02:53:08;1.00;;;0.50;;
21539;SDS011;10931;52.164;5.518;2023-04-08T02:55:36;1.95;;;0.50;;
21539;SDS011;10931;52.164;5.518;2023-04-08T03:00:51;0.52;;;0.40;;
21539;SDS011;10931;52.164;5.518;2023-04-08T03:03:21;0.57;;;0.50;;
21539;SDS011;10931;52.164;5.518;2023-04-08T03:05:52;0.63;;;0.40;;
21539;SDS011;10931;52.164;5.518;2023-04-08T03:08:18;0.50;;;0.50;;
21539;SDS011;10931;52.164;5.518;2023-04-08T03:10:44;0.52;;;0.40;;
21539;SDS011;10931;52.164;5.518;2023-04-08T03:13:16;0.90;;;0.75;;
21539;SDS011;10931;52.164;5.518;2023-04-08T03:15:42;1.13;;;0.63;;
21539;SDS011;10931;52.164;5.518;2023-04-08T03:18:07;0.88;;;0.60;;
21539;SDS011;10931;52.164;5.518;2023-04-08T03:20:33;0.68;;;0.60;;
21539;SDS011;10931;52.164;5.518;2023-04-08T03:23:00;0.70;;;0.68;;
21539;SDS011;10931;52.164;5.518;2023-04-08T03:25:26;0.77;;;0.70;;
21539;SDS011;10931;52.164;5.518;2023-04-08T03:27:53;1.08;;;0.75;;
21539;SDS011;10931;52.164;5.518;2023-04-08T03:30:19;0.77;;;0.70;;
21539;SDS011;10931;52.164;5.518;2023-04-08T03:32:45;0.80;;;0.57;;
21539;SDS011;10931;52.164;5.518;2023-04-08T03:35:13;0.73;;;0.50;;
21539;SDS011;10931;52.164;5.518;2023-04-08T03:37:39;0.90;;;0.70;;
21539;SDS011;10931;52.164;5.518;2023-04-08T03:40:05;0.60;;;0.50;;
21539;SDS011;10931;52.164;5.518;2023-04-08T03:42:31;0.80;;;0.60;;
21539;SDS011;10931;52.164;5.518;2023-04-08T03:44:59;0.47;;;0.47;;
21539;SDS011;10931;52.164;5.518;2023-04-08T03:47:25;0.40;;;0.40;;
21539;SDS011;10931;52.164;5.518;2023-04-08T03:49:51;0.50;;;0.40;;
21539;SDS011;10931;52.164;5.518;2023-04-08T03:52:18;0.57;;;0.52;;
21539;SDS011;10931;52.164;5.518;2023-04-08T03:54:44;0.40;;;0.40;;
21539;SDS011;10931;52.164;5.518;2023-04-08T03:57:10;0.68;;;0.60;;
21539;SDS011;10931;52.164;5.518;2023-04-08T03:59:36;0.60;;;0.45;;
21539;SDS011;10931;52.164;5.518;2023-04-08T04:02:03;0.63;;;0.60;;
21539;SDS011;10931;52.164;5.518;2023-04-08T04:04:29;1.55;;;0.52;;
21539;SDS011;10931;52.164;5.518;2023-04-08T04:06:55;0.40;;;0.40;;
21539;SDS011;10931;52.164;5.518;2023-04-08T04:09:20;0.40;;;0.40;;
21539;SDS011;10931;52.164;5.518;2023-04-08T04:11:47;0.50;;;0.40;;
21539;SDS011;10931;52.164;5.518;2023-04-08T04:14:12;0.50;;;0.40;;
21539;SDS011;10931;52.164;5.518;2023-04-08T04:16:38;0.68;;;0.40;;
21539;SDS011;10931;52.164;5.518;2023-04-08T04:19:04;0.55;;;0.47;;
21539;SDS011;10931;52.164;5.518;2023-04-08T04:21:32;0.32;;;0.32;;
21539;SDS011;10931;52.164;5.518;2023-04-08T04:23:58;0.60;;;0.50;;
21539;SDS011;10931;52.164;5.518;2023-04-08T04:26:23;0.32;;;0.32;;
21539;SDS011;10931;52.164;5.518;2023-04-08T04:28:49;0.40;;;0.40;;
21539;SDS011;10931;52.164;5.518;2023-04-08T04:31:18;0.40;;;0.40;;
21539;SDS011;10931;52.164;5.518;2023-04-08T04:33:50;0.50;;;0.40;;
21539;SDS011;10931;52.164;5.518;2023-04-08T04:36:16;0.47;;;0.40;;
21539;SDS011;10931;52.164;5.518;2023-04-08T04:38:42;0.47;;;0.40;;
21539;SDS011;10931;52.164;5.518;2023-04-08T04:41:08;0.40;;;0.40;;
21539;SDS011;10931;52.164;5.518;2023-04-08T04:43:34;0.30;;;0.30;;
21539;SDS011;10931;52.164;5.518;2023-04-08T04:46:00;0.50;;;0.40;;
21539;SDS011;10931;52.164;5.518;2023-04-08T04:48:28;0.40;;;0.40;;
21539;SDS011;10931;52.164;5.518;2023-04-08T04:50:59;0.60;;;0.40;;
21539;SDS011;10931;52.164;5.518;2023-04-08T04:53:27;0.52;;;0.30;;
21539;SDS011;10931;52.164;5.518;2023-04-08T04:55:53;0.52;;;0.30;;
21539;SDS011;10931;52.164;5.518;2023-04-08T04:58:19;0.40;;;0.40;;
21539;SDS011;10931;52.164;5.518;2023-04-08T05:00:45;0.30;;;0.30;;
21539;SDS011;10931;52.164;5.518;2023-04-08T05:03:11;0.40;;;0.40;;
21539;SDS011;10931;52.164;5.518;2023-04-08T05:05:37;0.40;;;0.38;;
21539;SDS011;10931;52.164;5.518;2023-04-08T05:08:03;0.47;;;0.40;;
21539;SDS011;10931;52.164;5.518;2023-04-08T05:10:29;0.35;;;0.35;;
21539;SDS011;10931;52.164;5.518;2023-04-08T05:12:55;0.40;;;0.40;;
21539;SDS011;10931;52.164;5.518;2023-04-08T05:15:20;0.40;;;0.40;;
21539;SDS011;10931;52.164;5.518;2023-04-08T05:17:48;0.40;;;0.40;;
21539;SDS011;10931;52.164;5.518;2023-04-08T05:20:14;0.55;;;0.20;;
21539;SDS011;10931;52.164;5.518;2023-04-08T05:22:40;0.73;;;0.43;;
21539;SDS011;10931;52.164;5.518;2023-04-08T05:25:08;0.57;;;0.40;;
21539;SDS011;10931;52.164;5.518;2023-04-08T05:27:34;0.40;;;0.40;;
21539;SDS011;10931;52.164;5.518;2023-04-08T05:30:00;0.38;;;0.38;;
21539;SDS011;10931;52.164;5.518;2023-04-08T05:32:26;0.30;;;0.30;;
21539;SDS011;10931;52.164;5.518;2023-04-08T05:34:52;0.30;;;0.30;;
21539;SDS011;10931;52.164;5.518;2023-04-08T05:37:17;0.30;;;0.30;;
21539;SDS011;10931;52.164;5.518;2023-04-08T05:39:45;0.55;;;0.50;;
21539;SDS011;10931;52.164;5.518;2023-04-08T05:42:11;0.40;;;0.30;;
21539;SDS011;10931;52.164;5.518;2023-04-08T05:44:37;0.40;;;0.40;;
21539;SDS011;10931;52.164;5.518;2023-04-08T05:47:05;0.40;;;0.40;;
21539;SDS011;10931;52.164;5.518;2023-04-08T05:49:32;0.30;;;0.30;;
21539;SDS011;10931;52.164;5.518;2023-04-08T05:51:58;0.77;;;0.40;;
21539;SDS011;10931;52.164;5.518;2023-04-08T05:54:26;0.43;;;0.30;;
21539;SDS011;10931;52.164;5.518;2023-04-08T05:56:51;0.38;;;0.35;;
21539;SDS011;10931;52.164;5.518;2023-04-08T05:59:17;0.40;;;0.30;;
21539;SDS011;10931;52.164;5.518;2023-04-08T06:01:43;0.40;;;0.30;;
21539;SDS011;10931;52.164;5.518;2023-04-08T06:04:11;0.30;;;0.30;;
21539;SDS011;10931;52.164;5.518;2023-04-08T06:06:37;0.40;;;0.40;;
21539;SDS011;10931;52.164;5.518;2023-04-08T06:09:04;0.40;;;0.40;;
21539;SDS011;10931;52.164;5.518;2023-04-08T06:11:37;0.52;;;0.40;;
21539;SDS011;10931;52.164;5.518;2023-04-08T06:14:15;0.47;;;0.40;;
21539;SDS011;10931;52.164;5.518;2023-04-08T06:16:44;0.38;;;0.38;;
21539;SDS011;10931;52.164;5.518;2023-04-08T06:19:10;0.40;;;0.40;;
21539;SDS011;10931;52.164;5.518;2023-04-08T06:21:36;0.40;;;0.40;;
21539;SDS011;10931;52.164;5.518;2023-04-08T06:24:03;0.35;;;0.35;;
21539;SDS011;10931;52.164;5.518;2023-04-08T06:26:29;0.60;;;0.50;;
21539;SDS011;10931;52.164;5.518;2023-04-08T06:28:55;0.25;;;0.25;;
21539;SDS011;10931;52.164;5.518;2023-04-08T06:31:24;0.43;;;0.40;;
21539;SDS011;10931;52.164;5.518;2023-04-08T06:33:52;0.45;;;0.30;;
21539;SDS011;10931;52.164;5.518;2023-04-08T06:36:21;0.40;;;0.38;;
21539;SDS011;10931;52.164;5.518;2023-04-08T06:38:46;0.40;;;0.40;;
21539;SDS011;10931;52.164;5.518;2023-04-08T06:41:15;0.60;;;0.50;;
21539;SDS011;10931;52.164;5.518;2023-04-08T06:43:43;0.50;;;0.50;;
21539;SDS011;10931;52.164;5.518;2023-04-08T06:46:08;0.65;;;0.60;;
21539;SDS011;10931;52.164;5.518;2023-04-08T06:48:37;0.50;;;0.50;;
21539;SDS011;10931;52.164;5.518;2023-04-08T06:51:12;0.40;;;0.40;;
21539;SDS011;10931;52.164;5.518;2023-04-08T06:53:40;0.55;;;0.40;;
21539;SDS011;10931;52.164;5.518;2023-04-08T06:56:06;0.30;;;0.30;;
21539;SDS011;10931;52.164;5.518;2023-04-08T06:58:35;1.45;;;0.60;;
21539;SDS011;10931;52.164;5.518;2023-04-08T07:01:01;0.77;;;0.55;;
21539;SDS011;10931;52.164;5.518;2023-04-08T07:03:35;0.50;;;0.50;;
21539;SDS011;10931;52.164;5.518;2023-04-08T07:06:01;0.43;;;0.43;;
21539;SDS011;10931;52.164;5.518;2023-04-08T07:08:30;0.60;;;0.50;;
21539;SDS011;10931;52.164;5.518;2023-04-08T07:10:56;0.60;;;0.50;;
21539;SDS011;10931;52.164;5.518;2023-04-08T07:13:22;0.65;;;0.40;;
21539;SDS011;10931;52.164;5.518;2023-04-08T07:15:48;0.70;;;0.50;;
21539;SDS011;10931;52.164;5.518;2023-04-08T07:18:15;0.38;;;0.30;;
21539;SDS011;10931;52.164;5.518;2023-04-08T07:20:44;0.50;;;0.40;;
21539;SDS011;10931;52.164;5.518;2023-04-08T07:23:15;0.45;;;0.40;;
21539;SDS011;10931;52.164;5.518;2023-04-08T07:25:40;0.68;;;0.40;;
21539;SDS011;10931;52.164;5.518;2023-04-08T07:28:06;0.43;;;0.43;;
21539;SDS011;10931;52.164;5.518;2023-04-08T07:30:37;0.95;;;0.50;;
21539;SDS011;10931;52.164;5.518;2023-04-08T07:33:05;0.65;;;0.50;;
21539;SDS011;10931;52.164;5.518;2023-04-08T07:35:32;0.40;;;0.40;;
21539;SDS011;10931;52.164;5.518;2023-04-08T07:37:58;0.45;;;0.43;;
21539;SDS011;10931;52.164;5.518;2023-04-08T07:40:37;0.65;;;0.50;;
21539;SDS011;10931;52.164;5.518;2023-04-08T07:43:03;0.50;;;0.47;;
21539;SDS011;10931;52.164;5.518;2023-04-08T07:45:29;0.75;;;0.60;;
21539;SDS011;10931;52.164;5.518;2023-04-08T07:48:10;0.80;;;0.50;;
21539;SDS011;10931;52.164;5.518;2023-04-08T07:50:36;1.08;;;0.50;;
21539;SDS011;10931;52.164;5.518;2023-04-08T07:53:11;0.80;;;0.50;;
21539;SDS011;10931;52.164;5.518;2023-04-08T07:55:39;0.82;;;0.52;;
21539;SDS011;10931;52.164;5.518;2023-04-08T07:58:07;0.73;;;0.65;;
21539;SDS011;10931;52.164;5.518;2023-04-08T08:00:32;0.50;;;0.50;;
21539;SDS011;10931;52.164;5.518;2023-04-08T08:02:58;2.22;;;0.40;;
21539;SDS011;10931;52.164;5.518;2023-04-08T08:05:33;0.47;;;0.47;;
21539;SDS011;10931;52.164;5.518;2023-04-08T08:08:10;0.68;;;0.50;;
21539;SDS011;10931;52.164;5.518;2023-04-08T08:10:37;0.98;;;0.65;;
21539;SDS011;10931;52.164;5.518;2023-04-08T08:13:06;0.82;;;0.60;;
21539;SDS011;10931;52.164;5.518;2023-04-08T08:15:40;1.33;;;0.60;;
21539;SDS011;10931;52.164;5.518;2023-04-08T08:18:06;0.57;;;0.57;;
21539;SDS011;10931;52.164;5.518;2023-04-08T08:20:32;0.63;;;0.55;;
21539;SDS011;10931;52.164;5.518;2023-04-08T08:23:02;0.85;;;0.50;;
21539;SDS011;10931;52.164;5.518;2023-04-08T08:25:30;0.93;;;0.68;;
21539;SDS011;10931;52.164;5.518;2023-04-08T08:27:56;1.27;;;0.60;;
21539;SDS011;10931;52.164;5.518;2023-04-08T08:30:24;0.60;;;0.60;;
21539;SDS011;10931;52.164;5.518;2023-04-08T08:32:58;1.25;;;0.73;;
21539;SDS011;10931;52.164;5.518;2023-04-08T08:35:29;0.52;;;0.52;;
21539;SDS011;10931;52.164;5.518;2023-04-08T08:37:58;0.60;;;0.52;;
21539;SDS011;10931;52.164;5.518;2023-04-08T08:40:23;0.60;;;0.60;;
21539;SDS011;10931;52.164;5.518;2023-04-08T08:42:52;0.93;;;0.60;;
21539;SDS011;10931;52.164;5.518;2023-04-08T08:45:20;0.47;;;0.47;;
21539;SDS011;10931;52.164;5.518;2023-04-08T08:47:46;0.90;;;0.70;;
21539;SDS011;10931;52.164;5.518;2023-04-08T08:50:15;0.70;;;0.60;;
21539;SDS011;10931;52.164;5.518;2023-04-08T08:52:47;0.57;;;0.43;;
21539;SDS011;10931;52.164;5.518;2023-04-08T08:55:19;0.60;;;0.60;;
21539;SDS011;10931;52.164;5.518;2023-04-08T08:57:50;0.60;;;0.50;;
21539;SDS011;10931;52.164;5.518;2023-04-08T09:00:29;0.70;;;0.52;;
21539;SDS011;10931;52.164;5.518;2023-04-08T09:02:56;1.08;;;0.63;;
21539;SDS011;10931;52.164;5.518;2023-04-08T09:05:47;0.90;;;0.65;;
21539;SDS011;10931;52.164;5.518;2023-04-08T09:08:23;0.60;;;0.50;;
21539;SDS011;10931;52.164;5.518;2023-04-08T09:10:54;0.60;;;0.52;;
21539;SDS011;10931;52.164;5.518;2023-04-08T09:13:23;0.80;;;0.50;;
21539;SDS011;10931;52.164;5.518;2023-04-08T09:18:46;0.57;;;0.57;;
21539;SDS011;10931;52.164;5.518;2023-04-08T09:21:21;1.35;;;0.82;;
21539;SDS011;10931;52.164;5.518;2023-04-08T09:23:49;0.60;;;0.60;;
21539;SDS011;10931;52.164;5.518;2023-04-08T09:26:16;0.50;;;0.50;;
21539;SDS011;10931;52.164;5.518;2023-04-08T09:28:56;0.77;;;0.70;;
21539;SDS011;10931;52.164;5.518;2023-04-08T09:31:29;1.05;;;0.70;;
21539;SDS011;10931;52.164;5.518;2023-04-08T09:34:08;1.27;;;0.93;;
21539;SDS011;10931;52.164;5.518;2023-04-08T09:36:36;0.88;;;0.75;;
21539;SDS011;10931;52.164;5.518;2023-04-08T09:39:02;0.90;;;0.70;;
21539;SDS011;10931;52.164;5.518;2023-04-08T09:41:28;1.73;;;0.80;;
21539;SDS011;10931;52.164;5.518;2023-04-08T09:43:58;1.67;;;1.00;;
21539;SDS011;10931;52.164;5.518;2023-04-08T09:51:47;3.85;;;0.93;;
21539;SDS011;10931;52.164;5.518;2023-04-08T09:54:21;1.45;;;0.90;;
21539;SDS011;10931;52.164;5.518;2023-04-08T09:56:59;1.10;;;0.85;;
21539;SDS011;10931;52.164;5.518;2023-04-08T09:59:35;1.58;;;1.02;;
21539;SDS011;10931;52.164;5.518;2023-04-08T10:02:06;1.42;;;1.00;;
21539;SDS011;10931;52.164;5.518;2023-04-08T10:04:39;2.33;;;1.23;;
21539;SDS011;10931;52.164;5.518;2023-04-08T10:07:17;1.60;;;1.30;;
21539;SDS011;10931;52.164;5.518;2023-04-08T10:09:45;2.08;;;1.38;;
21539;SDS011;10931;52.164;5.518;2023-04-08T10:12:11;1.40;;;1.10;;
21539;SDS011;10931;52.164;5.518;2023-04-08T10:14:37;1.40;;;1.08;;
21539;SDS011;10931;52.164;5.518;2023-04-08T10:20:00;1.77;;;1.10;;
21539;SDS011;10931;52.164;5.518;2023-04-08T10:27:43;1.52;;;1.02;;
21539;SDS011;10931;52.164;5.518;2023-04-08T10:32:58;1.20;;;0.82;;
21539;SDS011;10931;52.164;5.518;2023-04-08T10:35:36;1.15;;;0.90;;
21539;SDS011;10931;52.164;5.518;2023-04-08T10:38:10;1.33;;;0.98;;
21539;SDS011;10931;52.164;5.518;2023-04-08T10:40:41;0.80;;;0.80;;
21539;SDS011;10931;52.164;5.518;2023-04-08T10:43:10;1.80;;;0.95;;
21539;SDS011;10931;52.164;5.518;2023-04-08T10:45:37;1.25;;;0.90;;
21539;SDS011;10931;52.164;5.518;2023-04-08T10:48:20;0.90;;;0.80;;
21539;SDS011;10931;52.164;5.518;2023-04-08T10:53:30;0.95;;;0.80;;
21539;SDS011;10931;52.164;5.518;2023-04-08T10:56:04;1.55;;;1.10;;
21539;SDS011;10931;52.164;5.518;2023-04-08T10:58:47;1.80;;;0.98;;
21539;SDS011;10931;52.164;5.518;2023-04-08T11:01:20;1.48;;;1.00;;
21539;SDS011;10931;52.164;5.518;2023-04-08T11:03:46;1.38;;;0.98;;
21539;SDS011;10931;52.164;5.518;2023-04-08T11:06:12;1.33;;;1.13;;
21539;SDS011;10931;52.164;5.518;2023-04-08T11:08:38;1.75;;;1.15;;
21539;SDS011;10931;52.164;5.518;2023-04-08T11:11:05;1.58;;;0.75;;
21539;SDS011;10931;52.164;5.518;2023-04-08T11:13:38;1.23;;;0.93;;
21539;SDS011;10931;52.164;5.518;2023-04-08T11:16:06;1.08;;;0.90;;
21539;SDS011;10931;52.164;5.518;2023-04-08T11:18:39;1.60;;;0.90;;
21539;SDS011;10931;52.164;5.518;2023-04-08T11:21:14;0.85;;;0.75;;
21539;SDS011;10931;52.164;5.518;2023-04-08T11:23:47;1.27;;;0.93;;
21539;SDS011;10931;52.164;5.518;2023-04-08T11:26:17;1.23;;;1.00;;
21539;SDS011;10931;52.164;5.518;2023-04-08T11:28:44;1.17;;;0.98;;
21539;SDS011;10931;52.164;5.518;2023-04-08T11:31:13;2.30;;;1.00;;
21539;SDS011;10931;52.164;5.518;2023-04-08T11:33:46;1.35;;;0.90;;
21539;SDS011;10931;52.164;5.518;2023-04-08T11:36:16;1.92;;;0.80;;
21539;SDS011;10931;52.164;5.518;2023-04-08T11:38:46;1.73;;;0.88;;
21539;SDS011;10931;52.164;5.518;2023-04-08T11:41:12;1.88;;;1.02;;
21539;SDS011;10931;52.164;5.518;2023-04-08T11:43:50;1.98;;;1.00;;
21539;SDS011;10931;52.164;5.518;2023-04-08T11:46:19;1.30;;;1.00;;
21539;SDS011;10931;52.164;5.518;2023-04-08T11:51:53;1.60;;;1.08;;
21539;SDS011;10931;52.164;5.518;2023-04-08T11:54:32;1.08;;;0.90;;
21539;SDS011;10931;52.164;5.518;2023-04-08T11:56:58;1.70;;;1.15;;
21539;SDS011;10931;52.164;5.518;2023-04-08T11:59:25;1.52;;;1.02;;
21539;SDS011;10931;52.164;5.518;2023-04-08T12:01:51;3.13;;;1.50;;
21539;SDS011;10931;52.164;5.518;2023-04-08T12:04:21;2.58;;;1.10;;
21539;SDS011;10931;52.164;5.518;2023-04-08T12:09:58;1.75;;;1.10;;
21539;SDS011;10931;52.164;5.518;2023-04-08T12:12:46;1.73;;;1.33;;
21539;SDS011;10931;52.164;5.518;2023-04-08T12:15:26;1.60;;;1.00;;
21539;SDS011;10931;52.164;5.518;2023-04-08T12:18:15;1.70;;;1.10;;
21539;SDS011;10931;52.164;5.518;2023-04-08T12:21:15;2.90;;;1.20;;
21539;SDS011;10931;52.164;5.518;2023-04-08T12:23:46;2.83;;;1.33;;
21539;SDS011;10931;52.164;5.518;2023-04-08T12:26:17;2.22;;;1.27;;
21539;SDS011;10931;52.164;5.518;2023-04-08T12:29:06;3.55;;;1.30;;
21539;SDS011;10931;52.164;5.518;2023-04-08T12:31:44;3.00;;;1.00;;
21539;SDS011;10931;52.164;5.518;2023-04-08T12:34:34;1.70;;;1.10;;
21539;SDS011;10931;52.164;5.518;2023-04-08T12:37:11;1.75;;;1.25;;
21539;SDS011;10931;52.164;5.518;2023-04-08T12:40:10;1.25;;;0.82;;
21539;SDS011;10931;52.164;5.518;2023-04-08T12:42:41;1.40;;;1.15;;
21539;SDS011;10931;52.164;5.518;2023-04-08T12:45:07;1.90;;;1.27;;
21539;SDS011;10931;52.164;5.518;2023-04-08T12:47:42;1.70;;;1.10;;
21539;SDS011;10931;52.164;5.518;2023-04-08T12:50:28;1.95;;;1.23;;
21539;SDS011;10931;52.164;5.518;2023-04-08T12:52:53;1.67;;;1.27;;
21539;SDS011;10931;52.164;5.518;2023-04-08T12:55:19;1.70;;;1.00;;
21539;SDS011;10931;52.164;5.518;2023-04-08T12:57:48;1.58;;;1.05;;
21539;SDS011;10931;52.164;5.518;2023-04-08T13:00:26;1.38;;;1.17;;
21539;SDS011;10931;52.164;5.518;2023-04-08T13:03:31;1.92;;;1.00;;
21539;SDS011;10931;52.164;5.518;2023-04-08T13:06:05;1.42;;;0.90;;
21539;SDS011;10931;52.164;5.518;2023-04-08T13:08:31;1.77;;;1.00;;
21539;SDS011;10931;52.164;5.518;2023-04-08T13:11:00;1.83;;;1.20;;
21539;SDS011;10931;52.164;5.518;2023-04-08T13:18:50;1.70;;;1.30;;
21539;SDS011;10931;52.164;5.518;2023-04-08T13:21:22;1.60;;;1.25;;
21539;SDS011;10931;52.164;5.518;2023-04-08T13:23:50;3.58;;;1.52;;
21539;SDS011;10931;52.164;5.518;2023-04-08T13:26:18;2.00;;;1.40;;
21539;SDS011;10931;52.164;5.518;2023-04-08T13:28:47;2.13;;;1.45;;
21539;SDS011;10931;52.164;5.518;2023-04-08T13:31:18;1.40;;;1.10;;
21539;SDS011;10931;52.164;5.518;2023-04-08T13:33:47;2.17;;;1.27;;
21539;SDS011;10931;52.164;5.518;2023-04-08T13:36:15;1.98;;;1.20;;
21539;SDS011;10931;52.164;5.518;2023-04-08T13:38:41;1.63;;;1.00;;
21539;SDS011;10931;52.164;5.518;2023-04-08T13:43:41;1.27;;;1.00;;
21539;SDS011;10931;52.164;5.518;2023-04-08T13:46:12;2.35;;;1.30;;
21539;SDS011;10931;52.164;5.518;2023-04-08T13:48:41;1.52;;;1.15;;
21539;SDS011;10931;52.164;5.518;2023-04-08T13:51:10;1.98;;;1.40;;
21539;SDS011;10931;52.164;5.518;2023-04-08T13:53:36;1.10;;;1.00;;
21539;SDS011;10931;52.164;5.518;2023-04-08T13:56:06;2.13;;;1.30;;
21539;SDS011;10931;52.164;5.518;2023-04-08T13:58:37;1.40;;;1.23;;
21539;SDS011;10931;52.164;5.518;2023-04-08T14:01:05;1.83;;;1.20;;
21539;SDS011;10931;52.164;5.518;2023-04-08T14:03:33;2.47;;;1.58;;
21539;SDS011;10931;52.164;5.518;2023-04-08T14:06:02;1.17;;;1.00;;
21539;SDS011;10931;52.164;5.518;2023-04-08T14:08:27;2.20;;;1.50;;
21539;SDS011;10931;52.164;5.518;2023-04-08T14:10:58;1.92;;;1.10;;
21539;SDS011;10931;52.164;5.518;2023-04-08T14:13:26;1.83;;;1.40;;
21539;SDS011;10931;52.164;5.518;2023-04-08T14:15:52;2.28;;;1.25;;
21539;SDS011;10931;52.164;5.518;2023-04-08T14:18:20;1.15;;;1.00;;
21539;SDS011;10931;52.164;5.518;2023-04-08T14:20:46;2.15;;;1.40;;
21539;SDS011;10931;52.164;5.518;2023-04-08T14:23:14;1.67;;;1.10;;
21539;SDS011;10931;52.164;5.518;2023-04-08T14:25:46;1.48;;;1.05;;
21539;SDS011;10931;52.164;5.518;2023-04-08T14:28:14;2.03;;;1.40;;
21539;SDS011;10931;52.164;5.518;2023-04-08T14:30:39;1.38;;;0.90;;
21539;SDS011;10931;52.164;5.518;2023-04-08T14:33:07;1.85;;;1.17;;
21539;SDS011;10931;52.164;5.518;2023-04-08T14:35:33;1.10;;;0.90;;
21539;SDS011;10931;52.164;5.518;2023-04-08T14:37:58;1.52;;;1.08;;
21539;SDS011;10931;52.164;5.518;2023-04-08T14:40:24;1.20;;;1.00;;
21539;SDS011;10931;52.164;5.518;2023-04-08T14:42:52;1.40;;;1.05;;
21539;SDS011;10931;52.164;5.518;2023-04-08T14:45:20;1.55;;;0.90;;
21539;SDS011;10931;52.164;5.518;2023-04-08T14:47:48;2.05;;;1.05;;
21539;SDS011;10931;52.164;5.518;2023-04-08T14:50:17;1.63;;;1.13;;
21539;SDS011;10931;52.164;5.518;2023-04-08T14:52:46;3.05;;;1.30;;
21539;SDS011;10931;52.164;5.518;2023-04-08T14:55:15;1.58;;;1.02;;
21539;SDS011;10931;52.164;5.518;2023-04-08T14:57:41;1.73;;;0.88;;
21539;SDS011;10931;52.164;5.518;2023-04-08T15:00:24;1.35;;;0.90;;
21539;SDS011;10931;52.164;5.518;2023-04-08T15:06:19;1.50;;;1.15;;
21539;SDS011;10931;52.164;5.518;2023-04-08T15:08:52;1.65;;;1.17;;
21539;SDS011;10931;52.164;5.518;2023-04-08T15:11:23;2.53;;;1.30;;
21539;SDS011;10931;52.164;5.518;2023-04-08T15:13:51;1.75;;;1.00;;
21539;SDS011;10931;52.164;5.518;2023-04-08T15:16:29;1.83;;;1.02;;
21539;SDS011;10931;52.164;5.518;2023-04-08T15:18:55;2.05;;;1.20;;
21539;SDS011;10931;52.164;5.518;2023-04-08T15:21:23;1.42;;;1.08;;
21539;SDS011;10931;52.164;5.518;2023-04-08T15:23:55;1.42;;;0.95;;
21539;SDS011;10931;52.164;5.518;2023-04-08T15:26:20;1.60;;;1.20;;
21539;SDS011;10931;52.164;5.518;2023-04-08T15:31:18;1.83;;;1.20;;
21539;SDS011;10931;52.164;5.518;2023-04-08T15:33:47;1.92;;;1.35;;
21539;SDS011;10931;52.164;5.518;2023-04-08T15:36:13;1.35;;;1.10;;
21539;SDS011;10931;52.164;5.518;2023-04-08T15:38:47;1.35;;;0.95;;
21539;SDS011;10931;52.164;5.518;2023-04-08T15:41:16;1.65;;;0.98;;
21539;SDS011;10931;52.164;5.518;2023-04-08T15:43:48;3.40;;;1.67;;
21539;SDS011;10931;52.164;5.518;2023-04-08T15:46:22;2.22;;;1.20;;
21539;SDS011;10931;52.164;5.518;2023-04-08T15:48:51;1.48;;;1.20;;
21539;SDS011;10931;52.164;5.518;2023-04-08T15:51:22;1.73;;;1.08;;
21539;SDS011;10931;52.164;5.518;2023-04-08T15:53:47;1.45;;;1.10;;